sensor_id;sensor_type;location;lat;lon;timestamp;P1;durP1;ratioP1;P2;durP2;ratioP2
58760;SDS011;44529;47.464;19.014;2023-07-02T00:00:39;17.60;;;12.57;;
58760;SDS011;44529;47.464;19.014;2023-07-02T00:03:42;14.20;;;11.82;;
58760;SDS011;44529;47.464;19.014;2023-07-02T00:06:45;14.45;;;12.55;;
58760;SDS011;44529;47.464;19.014;2023-07-02T00:09:48;13.93;;;11.30;;
58760;SDS011;44529;47.464;19.014;2023-07-02T00:12:50;13.68;;;12.18;;
58760;SDS011;44529;47.464;19.014;2023-07-02T00:15:53;14.20;;;11.90;;
58760;SDS011;44529;47.464;19.014;2023-07-02T00:18:55;14.13;;;12.55;;
58760;SDS011;44529;47.464;19.014;2023-07-02T00:21:58;14.27;;;12.25;;
58760;SDS011;44529;47.464;19.014;2023-07-02T00:25:00;14.43;;;11.48;;
58760;SDS011;44529;47.464;19.014;2023-07-02T00:28:03;16.20;;;12.37;;
58760;SDS011;44529;47.464;19.014;2023-07-02T00:31:06;14.30;;;11.98;;
58760;SDS011;44529;47.464;19.014;2023-07-02T00:34:10;14.35;;;12.02;;
58760;SDS011;44529;47.464;19.014;2023-07-02T00:37:15;14.35;;;12.55;;
58760;SDS011;44529;47.464;19.014;2023-07-02T00:40:17;14.55;;;12.52;;
58760;SDS011;44529;47.464;19.014;2023-07-02T00:43:20;13.55;;;11.93;;
58760;SDS011;44529;47.464;19.014;2023-07-02T00:46:23;13.32;;;11.82;;
58760;SDS011;44529;47.464;19.014;2023-07-02T00:49:27;15.32;;;12.30;;
58760;SDS011;44529;47.464;19.014;2023-07-02T00:52:30;16.77;;;12.73;;
58760;SDS011;44529;47.464;19.014;2023-07-02T00:55:32;14.82;;;12.05;;
58760;SDS011;44529;47.464;19.014;2023-07-02T00:58:36;13.73;;;12.23;;
58760;SDS011;44529;47.464;19.014;2023-07-02T01:01:41;13.52;;;11.63;;
58760;SDS011;44529;47.464;19.014;2023-07-02T01:04:43;13.73;;;12.27;;
58760;SDS011;44529;47.464;19.014;2023-07-02T01:07:52;14.30;;;11.35;;
58760;SDS011;44529;47.464;19.014;2023-07-02T01:10:55;12.75;;;11.32;;
58760;SDS011;44529;47.464;19.014;2023-07-02T01:14:11;15.00;;;11.65;;
58760;SDS011;44529;47.464;19.014;2023-07-02T01:17:17;13.13;;;10.75;;
58760;SDS011;44529;47.464;19.014;2023-07-02T01:20:21;12.75;;;10.90;;
58760;SDS011;44529;47.464;19.014;2023-07-02T01:23:24;13.07;;;10.80;;
58760;SDS011;44529;47.464;19.014;2023-07-02T01:26:29;16.58;;;11.27;;
58760;SDS011;44529;47.464;19.014;2023-07-02T01:29:36;12.50;;;10.90;;
58760;SDS011;44529;47.464;19.014;2023-07-02T01:32:39;11.38;;;9.95;;
58760;SDS011;44529;47.464;19.014;2023-07-02T01:35:42;14.52;;;10.95;;
58760;SDS011;44529;47.464;19.014;2023-07-02T01:38:45;12.30;;;10.18;;
58760;SDS011;44529;47.464;19.014;2023-07-02T01:41:51;12.75;;;10.68;;
58760;SDS011;44529;47.464;19.014;2023-07-02T01:44:54;12.98;;;10.25;;
58760;SDS011;44529;47.464;19.014;2023-07-02T01:47:57;11.18;;;9.68;;
58760;SDS011;44529;47.464;19.014;2023-07-02T01:50:59;10.80;;;9.20;;
58760;SDS011;44529;47.464;19.014;2023-07-02T01:54:01;11.90;;;9.60;;
58760;SDS011;44529;47.464;19.014;2023-07-02T01:57:04;13.02;;;9.07;;
58760;SDS011;44529;47.464;19.014;2023-07-02T02:00:07;10.55;;;8.23;;
58760;SDS011;44529;47.464;19.014;2023-07-02T02:03:16;10.50;;;8.40;;
58760;SDS011;44529;47.464;19.014;2023-07-02T02:06:18;9.88;;;8.30;;
58760;SDS011;44529;47.464;19.014;2023-07-02T02:09:21;9.95;;;8.88;;
58760;SDS011;44529;47.464;19.014;2023-07-02T02:12:23;12.18;;;9.00;;
58760;SDS011;44529;47.464;19.014;2023-07-02T02:15:26;11.57;;;8.15;;
58760;SDS011;44529;47.464;19.014;2023-07-02T02:18:28;8.55;;;7.65;;
58760;SDS011;44529;47.464;19.014;2023-07-02T02:21:31;9.70;;;8.23;;
58760;SDS011;44529;47.464;19.014;2023-07-02T02:24:34;8.57;;;7.70;;
58760;SDS011;44529;47.464;19.014;2023-07-02T02:27:36;9.63;;;7.85;;
58760;SDS011;44529;47.464;19.014;2023-07-02T02:30:39;12.02;;;7.37;;
58760;SDS011;44529;47.464;19.014;2023-07-02T02:33:41;9.15;;;7.20;;
58760;SDS011;44529;47.464;19.014;2023-07-02T02:36:44;8.73;;;6.62;;
58760;SDS011;44529;47.464;19.014;2023-07-02T02:39:46;8.02;;;6.82;;
58760;SDS011;44529;47.464;19.014;2023-07-02T02:42:49;7.57;;;6.78;;
58760;SDS011;44529;47.464;19.014;2023-07-02T02:45:51;9.95;;;6.53;;
58760;SDS011;44529;47.464;19.014;2023-07-02T02:48:53;7.85;;;6.55;;
58760;SDS011;44529;47.464;19.014;2023-07-02T02:51:56;8.43;;;6.37;;
58760;SDS011;44529;47.464;19.014;2023-07-02T02:54:58;7.80;;;6.47;;
58760;SDS011;44529;47.464;19.014;2023-07-02T02:58:01;8.55;;;6.28;;
58760;SDS011;44529;47.464;19.014;2023-07-02T03:01:03;7.20;;;5.90;;
58760;SDS011;44529;47.464;19.014;2023-07-02T03:04:12;8.25;;;5.78;;
58760;SDS011;44529;47.464;19.014;2023-07-02T03:07:15;9.20;;;6.28;;
58760;SDS011;44529;47.464;19.014;2023-07-02T03:10:17;8.00;;;5.60;;
58760;SDS011;44529;47.464;19.014;2023-07-02T03:13:20;5.97;;;5.37;;
58760;SDS011;44529;47.464;19.014;2023-07-02T03:16:22;6.05;;;5.28;;
58760;SDS011;44529;47.464;19.014;2023-07-02T03:19:25;7.55;;;5.90;;
58760;SDS011;44529;47.464;19.014;2023-07-02T03:22:27;6.03;;;5.15;;
58760;SDS011;44529;47.464;19.014;2023-07-02T03:25:30;6.53;;;4.80;;
58760;SDS011;44529;47.464;19.014;2023-07-02T03:28:32;6.07;;;4.90;;
58760;SDS011;44529;47.464;19.014;2023-07-02T03:31:37;6.35;;;5.28;;
58760;SDS011;44529;47.464;19.014;2023-07-02T03:34:40;10.00;;;5.55;;
58760;SDS011;44529;47.464;19.014;2023-07-02T03:37:43;5.95;;;5.18;;
58760;SDS011;44529;47.464;19.014;2023-07-02T03:40:45;5.85;;;5.20;;
58760;SDS011;44529;47.464;19.014;2023-07-02T03:43:48;5.95;;;4.47;;
58760;SDS011;44529;47.464;19.014;2023-07-02T03:46:51;6.00;;;4.82;;
58760;SDS011;44529;47.464;19.014;2023-07-02T03:49:53;5.65;;;5.10;;
58760;SDS011;44529;47.464;19.014;2023-07-02T03:52:56;5.87;;;5.28;;
58760;SDS011;44529;47.464;19.014;2023-07-02T03:55:58;6.28;;;5.18;;
58760;SDS011;44529;47.464;19.014;2023-07-02T03:59:00;8.85;;;4.93;;
58760;SDS011;44529;47.464;19.014;2023-07-02T04:02:03;6.30;;;4.68;;
58760;SDS011;44529;47.464;19.014;2023-07-02T04:05:06;5.62;;;4.62;;
58760;SDS011;44529;47.464;19.014;2023-07-02T04:08:09;5.82;;;4.57;;
58760;SDS011;44529;47.464;19.014;2023-07-02T04:11:11;7.95;;;4.60;;
58760;SDS011;44529;47.464;19.014;2023-07-02T04:14:14;6.25;;;4.32;;
58760;SDS011;44529;47.464;19.014;2023-07-02T04:17:16;8.00;;;5.00;;
58760;SDS011;44529;47.464;19.014;2023-07-02T04:20:19;8.63;;;4.70;;
58760;SDS011;44529;47.464;19.014;2023-07-02T04:23:22;6.15;;;4.72;;
58760;SDS011;44529;47.464;19.014;2023-07-02T04:26:25;5.93;;;4.95;;
58760;SDS011;44529;47.464;19.014;2023-07-02T04:29:48;5.50;;;5.00;;
58760;SDS011;44529;47.464;19.014;2023-07-02T04:32:51;9.57;;;4.93;;
58760;SDS011;44529;47.464;19.014;2023-07-02T04:35:54;7.78;;;4.72;;
58760;SDS011;44529;47.464;19.014;2023-07-02T04:38:56;7.78;;;5.07;;
58760;SDS011;44529;47.464;19.014;2023-07-02T04:42:02;6.35;;;5.28;;
58760;SDS011;44529;47.464;19.014;2023-07-02T04:45:05;5.22;;;4.53;;
58760;SDS011;44529;47.464;19.014;2023-07-02T04:48:08;5.95;;;5.35;;
58760;SDS011;44529;47.464;19.014;2023-07-02T04:51:11;5.60;;;4.85;;
58760;SDS011;44529;47.464;19.014;2023-07-02T04:54:13;5.72;;;4.70;;
58760;SDS011;44529;47.464;19.014;2023-07-02T04:57:16;5.62;;;4.32;;
58760;SDS011;44529;47.464;19.014;2023-07-02T05:00:18;13.68;;;5.30;;
58760;SDS011;44529;47.464;19.014;2023-07-02T05:03:21;6.75;;;4.53;;
58760;SDS011;44529;47.464;19.014;2023-07-02T05:06:23;6.10;;;5.50;;
58760;SDS011;44529;47.464;19.014;2023-07-02T05:09:26;6.28;;;5.47;;
58760;SDS011;44529;47.464;19.014;2023-07-02T05:12:28;6.90;;;5.32;;
58760;SDS011;44529;47.464;19.014;2023-07-02T05:15:30;8.68;;;6.47;;
58760;SDS011;44529;47.464;19.014;2023-07-02T05:18:33;6.68;;;5.47;;
58760;SDS011;44529;47.464;19.014;2023-07-02T05:21:35;7.20;;;5.62;;
58760;SDS011;44529;47.464;19.014;2023-07-02T05:24:37;6.20;;;5.60;;
58760;SDS011;44529;47.464;19.014;2023-07-02T05:27:40;7.87;;;5.60;;
58760;SDS011;44529;47.464;19.014;2023-07-02T05:30:42;6.12;;;5.25;;
58760;SDS011;44529;47.464;19.014;2023-07-02T05:33:44;7.07;;;5.25;;
58760;SDS011;44529;47.464;19.014;2023-07-02T05:36:47;6.22;;;5.37;;
58760;SDS011;44529;47.464;19.014;2023-07-02T05:39:49;5.97;;;5.37;;
58760;SDS011;44529;47.464;19.014;2023-07-02T05:42:52;7.75;;;5.15;;
58760;SDS011;44529;47.464;19.014;2023-07-02T05:45:54;6.47;;;5.78;;
58760;SDS011;44529;47.464;19.014;2023-07-02T05:48:57;6.68;;;5.90;;
58760;SDS011;44529;47.464;19.014;2023-07-02T05:51:59;6.97;;;5.25;;
58760;SDS011;44529;47.464;19.014;2023-07-02T05:55:01;6.72;;;5.55;;
58760;SDS011;44529;47.464;19.014;2023-07-02T05:58:04;6.90;;;5.10;;
58760;SDS011;44529;47.464;19.014;2023-07-02T06:01:06;6.25;;;4.72;;
58760;SDS011;44529;47.464;19.014;2023-07-02T06:04:09;6.18;;;5.25;;
58760;SDS011;44529;47.464;19.014;2023-07-02T06:07:11;6.53;;;5.00;;
58760;SDS011;44529;47.464;19.014;2023-07-02T06:10:14;7.57;;;4.87;;
58760;SDS011;44529;47.464;19.014;2023-07-02T06:13:16;5.12;;;4.57;;
58760;SDS011;44529;47.464;19.014;2023-07-02T06:16:19;8.13;;;4.82;;
58760;SDS011;44529;47.464;19.014;2023-07-02T06:19:21;5.22;;;4.60;;
58760;SDS011;44529;47.464;19.014;2023-07-02T06:22:23;7.57;;;4.68;;
58760;SDS011;44529;47.464;19.014;2023-07-02T06:25:26;8.77;;;5.15;;
58760;SDS011;44529;47.464;19.014;2023-07-02T06:28:28;6.47;;;5.03;;
58760;SDS011;44529;47.464;19.014;2023-07-02T06:31:31;4.97;;;4.47;;
58760;SDS011;44529;47.464;19.014;2023-07-02T06:34:33;6.07;;;4.43;;
58760;SDS011;44529;47.464;19.014;2023-07-02T06:37:36;7.93;;;4.47;;
58760;SDS011;44529;47.464;19.014;2023-07-02T06:40:38;5.70;;;4.35;;
58760;SDS011;44529;47.464;19.014;2023-07-02T06:43:43;7.03;;;4.55;;
58760;SDS011;44529;47.464;19.014;2023-07-02T06:46:46;6.18;;;4.28;;
58760;SDS011;44529;47.464;19.014;2023-07-02T06:49:48;5.10;;;4.28;;
58760;SDS011;44529;47.464;19.014;2023-07-02T06:52:51;4.68;;;4.28;;
58760;SDS011;44529;47.464;19.014;2023-07-02T06:55:53;5.68;;;4.12;;
58760;SDS011;44529;47.464;19.014;2023-07-02T06:58:56;5.70;;;4.15;;
58760;SDS011;44529;47.464;19.014;2023-07-02T07:01:58;4.47;;;4.07;;
58760;SDS011;44529;47.464;19.014;2023-07-02T07:05:00;4.40;;;3.97;;
58760;SDS011;44529;47.464;19.014;2023-07-02T07:08:03;6.22;;;3.92;;
58760;SDS011;44529;47.464;19.014;2023-07-02T07:11:06;5.40;;;3.87;;
58760;SDS011;44529;47.464;19.014;2023-07-02T07:14:08;4.72;;;4.03;;
58760;SDS011;44529;47.464;19.014;2023-07-02T07:17:10;4.18;;;3.78;;
58760;SDS011;44529;47.464;19.014;2023-07-02T07:20:13;4.62;;;3.90;;
58760;SDS011;44529;47.464;19.014;2023-07-02T07:23:16;6.80;;;4.18;;
58760;SDS011;44529;47.464;19.014;2023-07-02T07:26:19;7.28;;;3.60;;
58760;SDS011;44529;47.464;19.014;2023-07-02T07:29:21;3.95;;;3.47;;
58760;SDS011;44529;47.464;19.014;2023-07-02T07:32:24;4.28;;;3.92;;
58760;SDS011;44529;47.464;19.014;2023-07-02T07:35:26;5.65;;;3.83;;
58760;SDS011;44529;47.464;19.014;2023-07-02T07:38:29;6.53;;;3.80;;
58760;SDS011;44529;47.464;19.014;2023-07-02T07:41:31;4.15;;;3.75;;
58760;SDS011;44529;47.464;19.014;2023-07-02T07:44:34;6.15;;;3.87;;
58760;SDS011;44529;47.464;19.014;2023-07-02T07:47:37;4.05;;;3.75;;
58760;SDS011;44529;47.464;19.014;2023-07-02T07:50:41;5.75;;;3.60;;
58760;SDS011;44529;47.464;19.014;2023-07-02T07:53:43;4.43;;;3.53;;
58760;SDS011;44529;47.464;19.014;2023-07-02T07:56:45;4.78;;;3.72;;
58760;SDS011;44529;47.464;19.014;2023-07-02T07:59:48;6.90;;;3.95;;
58760;SDS011;44529;47.464;19.014;2023-07-02T08:02:50;4.15;;;3.50;;
58760;SDS011;44529;47.464;19.014;2023-07-02T08:05:54;4.55;;;3.53;;
58760;SDS011;44529;47.464;19.014;2023-07-02T08:08:56;5.07;;;3.83;;
58760;SDS011;44529;47.464;19.014;2023-07-02T08:11:59;4.80;;;3.58;;
58760;SDS011;44529;47.464;19.014;2023-07-02T08:15:01;5.87;;;4.03;;
58760;SDS011;44529;47.464;19.014;2023-07-02T08:18:04;4.15;;;3.72;;
58760;SDS011;44529;47.464;19.014;2023-07-02T08:21:09;4.47;;;3.83;;
58760;SDS011;44529;47.464;19.014;2023-07-02T08:24:13;3.87;;;3.47;;
58760;SDS011;44529;47.464;19.014;2023-07-02T08:27:16;4.35;;;3.78;;
58760;SDS011;44529;47.464;19.014;2023-07-02T08:30:21;5.10;;;3.60;;
58760;SDS011;44529;47.464;19.014;2023-07-02T08:33:23;8.98;;;3.47;;
58760;SDS011;44529;47.464;19.014;2023-07-02T08:36:26;4.75;;;3.80;;
58760;SDS011;44529;47.464;19.014;2023-07-02T08:39:28;4.37;;;3.55;;
58760;SDS011;44529;47.464;19.014;2023-07-02T08:42:32;3.97;;;3.58;;
58760;SDS011;44529;47.464;19.014;2023-07-02T08:45:35;4.55;;;3.70;;
58760;SDS011;44529;47.464;19.014;2023-07-02T08:48:38;4.00;;;3.28;;
58760;SDS011;44529;47.464;19.014;2023-07-02T08:51:41;5.75;;;3.95;;
58760;SDS011;44529;47.464;19.014;2023-07-02T08:54:46;5.03;;;3.85;;
58760;SDS011;44529;47.464;19.014;2023-07-02T08:57:49;5.07;;;3.83;;
58760;SDS011;44529;47.464;19.014;2023-07-02T09:01:11;5.78;;;3.80;;
58760;SDS011;44529;47.464;19.014;2023-07-02T09:04:15;3.50;;;3.20;;
58760;SDS011;44529;47.464;19.014;2023-07-02T09:07:21;4.20;;;3.75;;
58760;SDS011;44529;47.464;19.014;2023-07-02T09:10:28;4.50;;;4.10;;
58760;SDS011;44529;47.464;19.014;2023-07-02T09:13:41;4.45;;;4.05;;
58760;SDS011;44529;47.464;19.014;2023-07-02T09:16:47;7.05;;;4.25;;
58760;SDS011;44529;47.464;19.014;2023-07-02T09:19:50;5.72;;;3.92;;
58760;SDS011;44529;47.464;19.014;2023-07-02T09:22:53;5.47;;;4.37;;
58760;SDS011;44529;47.464;19.014;2023-07-02T09:25:57;6.37;;;4.20;;
58760;SDS011;44529;47.464;19.014;2023-07-02T09:29:02;5.07;;;4.43;;
58760;SDS011;44529;47.464;19.014;2023-07-02T09:32:05;4.68;;;4.20;;
58760;SDS011;44529;47.464;19.014;2023-07-02T09:35:12;6.47;;;4.30;;
58760;SDS011;44529;47.464;19.014;2023-07-02T09:38:15;4.87;;;4.37;;
58760;SDS011;44529;47.464;19.014;2023-07-02T09:41:17;6.00;;;4.45;;
58760;SDS011;44529;47.464;19.014;2023-07-02T09:44:20;6.57;;;4.07;;
58760;SDS011;44529;47.464;19.014;2023-07-02T09:47:23;4.40;;;4.00;;
58760;SDS011;44529;47.464;19.014;2023-07-02T09:50:27;5.78;;;4.10;;
58760;SDS011;44529;47.464;19.014;2023-07-02T09:53:30;4.80;;;4.30;;
58760;SDS011;44529;47.464;19.014;2023-07-02T09:56:33;5.80;;;4.22;;
58760;SDS011;44529;47.464;19.014;2023-07-02T09:59:35;4.53;;;3.87;;
58760;SDS011;44529;47.464;19.014;2023-07-02T10:02:38;5.20;;;4.30;;
58760;SDS011;44529;47.464;19.014;2023-07-02T10:05:40;7.47;;;3.80;;
58760;SDS011;44529;47.464;19.014;2023-07-02T10:08:55;3.60;;;3.30;;
58760;SDS011;44529;47.464;19.014;2023-07-02T10:11:58;5.78;;;3.83;;
58760;SDS011;44529;47.464;19.014;2023-07-02T10:15:00;12.15;;;4.05;;
58760;SDS011;44529;47.464;19.014;2023-07-02T10:18:03;4.78;;;4.00;;
58760;SDS011;44529;47.464;19.014;2023-07-02T10:21:13;4.68;;;3.72;;
58760;SDS011;44529;47.464;19.014;2023-07-02T10:24:19;4.05;;;3.65;;
58760;SDS011;44529;47.464;19.014;2023-07-02T10:27:21;3.90;;;3.50;;
58760;SDS011;44529;47.464;19.014;2023-07-02T10:30:36;5.72;;;3.12;;
58760;SDS011;44529;47.464;19.014;2023-07-02T10:33:43;3.92;;;3.45;;
58760;SDS011;44529;47.464;19.014;2023-07-02T10:36:46;4.22;;;3.78;;
58760;SDS011;44529;47.464;19.014;2023-07-02T10:39:48;4.05;;;3.65;;
58760;SDS011;44529;47.464;19.014;2023-07-02T10:42:52;5.82;;;3.58;;
58760;SDS011;44529;47.464;19.014;2023-07-02T10:45:55;5.45;;;3.53;;
58760;SDS011;44529;47.464;19.014;2023-07-02T10:48:57;5.62;;;3.80;;
58760;SDS011;44529;47.464;19.014;2023-07-02T10:52:00;4.82;;;3.60;;
58760;SDS011;44529;47.464;19.014;2023-07-02T10:55:04;5.55;;;3.60;;
58760;SDS011;44529;47.464;19.014;2023-07-02T10:58:07;5.95;;;3.70;;
58760;SDS011;44529;47.464;19.014;2023-07-02T11:01:11;4.30;;;2.90;;
58760;SDS011;44529;47.464;19.014;2023-07-02T11:04:13;4.22;;;3.75;;
58760;SDS011;44529;47.464;19.014;2023-07-02T11:07:21;3.87;;;3.58;;
58760;SDS011;44529;47.464;19.014;2023-07-02T11:10:24;3.78;;;3.42;;
58760;SDS011;44529;47.464;19.014;2023-07-02T11:13:27;6.03;;;3.42;;
58760;SDS011;44529;47.464;19.014;2023-07-02T11:16:29;5.50;;;3.70;;
58760;SDS011;44529;47.464;19.014;2023-07-02T11:19:32;4.25;;;3.40;;
58760;SDS011;44529;47.464;19.014;2023-07-02T11:22:36;4.10;;;3.70;;
58760;SDS011;44529;47.464;19.014;2023-07-02T11:25:40;6.25;;;3.65;;
58760;SDS011;44529;47.464;19.014;2023-07-02T11:28:49;3.78;;;3.25;;
58760;SDS011;44529;47.464;19.014;2023-07-02T11:31:53;4.00;;;3.62;;
58760;SDS011;44529;47.464;19.014;2023-07-02T11:34:55;5.45;;;4.25;;
58760;SDS011;44529;47.464;19.014;2023-07-02T11:37:58;7.05;;;3.70;;
58760;SDS011;44529;47.464;19.014;2023-07-02T11:41:02;5.57;;;3.67;;
58760;SDS011;44529;47.464;19.014;2023-07-02T11:44:06;3.87;;;3.40;;
58760;SDS011;44529;47.464;19.014;2023-07-02T11:47:08;7.72;;;3.15;;
58760;SDS011;44529;47.464;19.014;2023-07-02T11:50:11;4.65;;;3.08;;
58760;SDS011;44529;47.464;19.014;2023-07-02T11:53:27;3.08;;;2.78;;
58760;SDS011;44529;47.464;19.014;2023-07-02T11:56:30;3.17;;;2.87;;
58760;SDS011;44529;47.464;19.014;2023-07-02T11:59:32;6.50;;;3.22;;
58760;SDS011;44529;47.464;19.014;2023-07-02T12:02:35;4.72;;;3.20;;
58760;SDS011;44529;47.464;19.014;2023-07-02T12:05:38;5.97;;;3.80;;
58760;SDS011;44529;47.464;19.014;2023-07-02T12:08:40;3.42;;;3.12;;
58760;SDS011;44529;47.464;19.014;2023-07-02T12:11:43;6.80;;;3.22;;
58760;SDS011;44529;47.464;19.014;2023-07-02T12:14:47;5.12;;;3.10;;
58760;SDS011;44529;47.464;19.014;2023-07-02T12:17:49;3.33;;;3.03;;
58760;SDS011;44529;47.464;19.014;2023-07-02T12:20:52;4.32;;;2.92;;
58760;SDS011;44529;47.464;19.014;2023-07-02T12:23:54;3.97;;;2.90;;
58760;SDS011;44529;47.464;19.014;2023-07-02T12:26:57;3.53;;;3.22;;
58760;SDS011;44529;47.464;19.014;2023-07-02T12:29:59;3.28;;;2.80;;
58760;SDS011;44529;47.464;19.014;2023-07-02T12:33:01;6.47;;;2.95;;
58760;SDS011;44529;47.464;19.014;2023-07-02T12:36:04;4.53;;;2.80;;
58760;SDS011;44529;47.464;19.014;2023-07-02T12:39:06;3.37;;;3.08;;
58760;SDS011;44529;47.464;19.014;2023-07-02T12:42:09;7.85;;;3.17;;
58760;SDS011;44529;47.464;19.014;2023-07-02T12:45:12;3.20;;;2.60;;
58760;SDS011;44529;47.464;19.014;2023-07-02T12:48:16;3.42;;;2.70;;
58760;SDS011;44529;47.464;19.014;2023-07-02T12:51:18;3.53;;;2.90;;
58760;SDS011;44529;47.464;19.014;2023-07-02T12:54:21;5.32;;;3.15;;
58760;SDS011;44529;47.464;19.014;2023-07-02T12:57:23;3.05;;;2.30;;
58760;SDS011;44529;47.464;19.014;2023-07-02T13:00:26;2.70;;;2.50;;
58760;SDS011;44529;47.464;19.014;2023-07-02T13:03:29;2.87;;;2.45;;
58760;SDS011;44529;47.464;19.014;2023-07-02T13:06:33;3.80;;;2.72;;
58760;SDS011;44529;47.464;19.014;2023-07-02T13:09:41;2.87;;;2.60;;
58760;SDS011;44529;47.464;19.014;2023-07-02T13:12:44;2.83;;;2.62;;
58760;SDS011;44529;47.464;19.014;2023-07-02T13:15:46;2.87;;;2.62;;
58760;SDS011;44529;47.464;19.014;2023-07-02T13:18:49;3.28;;;2.20;;
58760;SDS011;44529;47.464;19.014;2023-07-02T13:21:52;2.97;;;2.20;;
58760;SDS011;44529;47.464;19.014;2023-07-02T13:24:54;2.00;;;1.90;;
58760;SDS011;44529;47.464;19.014;2023-07-02T13:27:56;1.35;;;1.25;;
58760;SDS011;44529;47.464;19.014;2023-07-02T13:30:59;2.12;;;1.50;;
58760;SDS011;44529;47.464;19.014;2023-07-02T13:34:01;1.37;;;1.27;;
58760;SDS011;44529;47.464;19.014;2023-07-02T13:37:04;1.20;;;1.10;;
58760;SDS011;44529;47.464;19.014;2023-07-02T13:40:06;2.28;;;1.27;;
58760;SDS011;44529;47.464;19.014;2023-07-02T13:43:10;1.62;;;1.40;;
58760;SDS011;44529;47.464;19.014;2023-07-02T13:46:13;1.30;;;1.12;;
58760;SDS011;44529;47.464;19.014;2023-07-02T13:49:15;1.50;;;1.40;;
58760;SDS011;44529;47.464;19.014;2023-07-02T13:52:17;1.20;;;1.10;;
58760;SDS011;44529;47.464;19.014;2023-07-02T13:55:20;0.95;;;0.88;;
58760;SDS011;44529;47.464;19.014;2023-07-02T14:01:47;1.42;;;1.27;;
58760;SDS011;44529;47.464;19.014;2023-07-02T14:04:51;1.37;;;1.27;;
58760;SDS011;44529;47.464;19.014;2023-07-02T14:07:53;2.20;;;1.17;;
58760;SDS011;44529;47.464;19.014;2023-07-02T14:10:56;1.42;;;1.33;;
58760;SDS011;44529;47.464;19.014;2023-07-02T14:13:58;1.50;;;1.40;;
58760;SDS011;44529;47.464;19.014;2023-07-02T14:17:01;1.67;;;1.58;;
58760;SDS011;44529;47.464;19.014;2023-07-02T14:20:04;2.95;;;1.40;;
58760;SDS011;44529;47.464;19.014;2023-07-02T14:23:09;1.37;;;1.27;;
58760;SDS011;44529;47.464;19.014;2023-07-02T14:26:11;1.67;;;1.58;;
58760;SDS011;44529;47.464;19.014;2023-07-02T14:29:14;2.58;;;1.75;;
58760;SDS011;44529;47.464;19.014;2023-07-02T14:32:16;3.45;;;1.87;;
58760;SDS011;44529;47.464;19.014;2023-07-02T14:35:19;3.08;;;1.80;;
58760;SDS011;44529;47.464;19.014;2023-07-02T14:38:23;4.30;;;2.00;;
58760;SDS011;44529;47.464;19.014;2023-07-02T14:41:26;1.92;;;1.65;;
58760;SDS011;44529;47.464;19.014;2023-07-02T14:44:29;2.45;;;1.75;;
58760;SDS011;44529;47.464;19.014;2023-07-02T14:47:31;1.95;;;1.60;;
58760;SDS011;44529;47.464;19.014;2023-07-02T14:50:34;2.25;;;1.67;;
58760;SDS011;44529;47.464;19.014;2023-07-02T14:53:37;1.87;;;1.75;;
58760;SDS011;44529;47.464;19.014;2023-07-02T14:56:39;1.70;;;1.60;;
58760;SDS011;44529;47.464;19.014;2023-07-02T14:59:42;1.40;;;1.30;;
58760;SDS011;44529;47.464;19.014;2023-07-02T15:02:44;1.62;;;1.52;;
58760;SDS011;44529;47.464;19.014;2023-07-02T15:05:47;3.08;;;1.60;;
58760;SDS011;44529;47.464;19.014;2023-07-02T15:08:50;1.73;;;1.55;;
58760;SDS011;44529;47.464;19.014;2023-07-02T15:11:52;1.80;;;1.70;;
58760;SDS011;44529;47.464;19.014;2023-07-02T15:14:55;2.22;;;1.80;;
58760;SDS011;44529;47.464;19.014;2023-07-02T15:17:57;3.60;;;1.75;;
58760;SDS011;44529;47.464;19.014;2023-07-02T15:21:00;2.10;;;1.87;;
58760;SDS011;44529;47.464;19.014;2023-07-02T15:24:03;2.85;;;1.90;;
58760;SDS011;44529;47.464;19.014;2023-07-02T15:27:05;2.53;;;1.60;;
58760;SDS011;44529;47.464;19.014;2023-07-02T15:30:09;1.92;;;1.50;;
58760;SDS011;44529;47.464;19.014;2023-07-02T15:33:12;2.08;;;1.67;;
58760;SDS011;44529;47.464;19.014;2023-07-02T15:36:15;2.40;;;1.42;;
58760;SDS011;44529;47.464;19.014;2023-07-02T15:39:17;2.65;;;1.90;;
58760;SDS011;44529;47.464;19.014;2023-07-02T15:42:24;2.17;;;1.98;;
58760;SDS011;44529;47.464;19.014;2023-07-02T15:45:31;2.22;;;1.80;;
58760;SDS011;44529;47.464;19.014;2023-07-02T15:48:34;2.20;;;1.87;;
58760;SDS011;44529;47.464;19.014;2023-07-02T15:51:36;2.75;;;2.00;;
58760;SDS011;44529;47.464;19.014;2023-07-02T15:54:41;2.70;;;1.95;;
58760;SDS011;44529;47.464;19.014;2023-07-02T15:57:43;3.72;;;1.87;;
58760;SDS011;44529;47.464;19.014;2023-07-02T16:00:46;3.37;;;1.67;;
58760;SDS011;44529;47.464;19.014;2023-07-02T16:03:49;2.25;;;1.60;;
58760;SDS011;44529;47.464;19.014;2023-07-02T16:06:52;2.65;;;1.92;;
58760;SDS011;44529;47.464;19.014;2023-07-02T16:09:54;2.80;;;1.85;;
58760;SDS011;44529;47.464;19.014;2023-07-02T16:12:57;2.25;;;2.05;;
58760;SDS011;44529;47.464;19.014;2023-07-02T16:16:03;2.50;;;2.30;;
58760;SDS011;44529;47.464;19.014;2023-07-02T16:19:07;4.53;;;2.47;;
58760;SDS011;44529;47.464;19.014;2023-07-02T16:22:10;2.47;;;2.28;;
58760;SDS011;44529;47.464;19.014;2023-07-02T16:25:13;4.65;;;2.40;;
58760;SDS011;44529;47.464;19.014;2023-07-02T16:28:15;6.20;;;2.55;;
58760;SDS011;44529;47.464;19.014;2023-07-02T16:31:17;2.95;;;2.28;;
58760;SDS011;44529;47.464;19.014;2023-07-02T16:34:23;2.87;;;2.67;;
58760;SDS011;44529;47.464;19.014;2023-07-02T16:37:26;2.83;;;2.30;;
58760;SDS011;44529;47.464;19.014;2023-07-02T16:40:28;3.00;;;2.70;;
58760;SDS011;44529;47.464;19.014;2023-07-02T16:43:31;4.97;;;2.25;;
58760;SDS011;44529;47.464;19.014;2023-07-02T16:46:34;3.92;;;2.78;;
58760;SDS011;44529;47.464;19.014;2023-07-02T16:49:36;2.58;;;2.03;;
58760;SDS011;44529;47.464;19.014;2023-07-02T16:52:39;2.67;;;1.98;;
58760;SDS011;44529;47.464;19.014;2023-07-02T16:55:41;1.90;;;1.80;;
58760;SDS011;44529;47.464;19.014;2023-07-02T16:58:45;3.35;;;2.03;;
58760;SDS011;44529;47.464;19.014;2023-07-02T17:01:49;2.55;;;1.67;;
58760;SDS011;44529;47.464;19.014;2023-07-02T17:04:53;1.75;;;1.65;;
58760;SDS011;44529;47.464;19.014;2023-07-02T17:07:55;2.40;;;1.25;;
58760;SDS011;44529;47.464;19.014;2023-07-02T17:10:58;1.85;;;1.67;;
58760;SDS011;44529;47.464;19.014;2023-07-02T17:14:00;3.20;;;1.85;;
58760;SDS011;44529;47.464;19.014;2023-07-02T17:17:08;2.60;;;2.10;;
58760;SDS011;44529;47.464;19.014;2023-07-02T17:20:12;1.77;;;1.62;;
58760;SDS011;44529;47.464;19.014;2023-07-02T17:23:15;2.55;;;2.20;;
58760;SDS011;44529;47.464;19.014;2023-07-02T17:26:17;3.28;;;1.80;;
58760;SDS011;44529;47.464;19.014;2023-07-02T17:29:20;2.12;;;1.90;;
58760;SDS011;44529;47.464;19.014;2023-07-02T17:32:23;2.53;;;2.03;;
58760;SDS011;44529;47.464;19.014;2023-07-02T17:35:26;4.85;;;1.98;;
58760;SDS011;44529;47.464;19.014;2023-07-02T17:38:28;4.00;;;2.10;;
58760;SDS011;44529;47.464;19.014;2023-07-02T17:41:31;2.42;;;2.22;;
58760;SDS011;44529;47.464;19.014;2023-07-02T17:44:37;5.35;;;2.12;;
58760;SDS011;44529;47.464;19.014;2023-07-02T17:47:41;3.22;;;2.35;;
58760;SDS011;44529;47.464;19.014;2023-07-02T17:50:52;2.60;;;2.10;;
58760;SDS011;44529;47.464;19.014;2023-07-02T17:53:55;5.80;;;2.28;;
58760;SDS011;44529;47.464;19.014;2023-07-02T17:56:58;4.18;;;2.08;;
58760;SDS011;44529;47.464;19.014;2023-07-02T18:00:00;2.53;;;2.33;;
58760;SDS011;44529;47.464;19.014;2023-07-02T18:03:02;2.42;;;2.20;;
58760;SDS011;44529;47.464;19.014;2023-07-02T18:06:05;2.35;;;2.15;;